Time,TemperatureF,DewpointF,PressureIn,WindDirection,WindDirectionDegrees,WindSpeedMPH,WindSpeedGustMPH,Humidity,HourlyPrecipIn,Conditions,Clouds,dailyrainin,SoftwareType,DateUTC
2013-06-08 00:00:00,87.0,33.8,29.80,NW,315,2.0,3.0,15,0.00,,SKC,0.00,VWS V14.01,2013-06-08 07:00:00,
2013-06-08 00:05:00,87.0,33.8,29.81,NNW,338,0.0,0.0,15,0.00,,SKC,0.00,VWS V14.01,2013-06-08 07:05:00,
2013-06-08 00:10:00,86.0,33.0,29.81,North,0,0.0,0.0,15,0.00,,SKC,0.00,VWS V14.01,2013-06-08 07:10:00,
2013-06-08 00:15:00,85.0,32.2,29.81,NE,45,2.0,2.0,15,0.00,,SKC,0.00,VWS V14.01,2013-06-08 07:15:00,
2013-06-08 00:20:00,84.0,33.0,29.81,NNE,22,1.0,2.0,16,0.00,,SKC,0.00,VWS V14.01,2013-06-08 07:20:00,
2013-06-08 00:26:00,84.0,33.0,29.81,NNE,22,0.0,0.0,16,0.00,,SKC,0.00,VWS V14.01,2013-06-08 07:26:00,
2013-06-08 00:31:00,83.0,32.2,29.81,NNW,338,0.0,0.0,16,0.00,,SKC,0.00,VWS V14.01,2013-06-08 07:31:00,
2013-06-08 00:37:00,83.0,33.7,29.81,North,0,0.0,1.0,17,0.00,,SKC,0.00,VWS V14.01,2013-06-08 07:37:00,
2013-06-08 00:42:00,83.0,32.2,29.81,North,0,0.0,0.0,16,0.00,,SKC,0.00,VWS V14.01,2013-06-08 07:42:00,
2013-06-08 00:47:00,83.0,32.2,29.80,North,0,0.0,0.0,16,0.00,,SKC,0.00,VWS V14.01,2013-06-08 07:47:00,
2013-06-08 00:53:00,84.0,33.0,29.80,North,0,0.0,0.0,16,0.00,,SKC,0.00,VWS V14.01,2013-06-08 07:53:00,
2013-06-08 00:59:00,84.0,33.0,29.80,North,0,0.0,0.0,16,0.00,,SKC,0.00,VWS V14.01,2013-06-08 07:59:00,
2013-06-08 01:05:00,83.0,32.2,29.80,NW,315,0.0,0.0,16,0.00,,SKC,0.00,VWS V14.01,2013-06-08 08:05:00,
2013-06-08 01:11:00,83.0,32.2,29.80,NNE,22,0.0,1.0,16,0.00,,SKC,0.00,VWS V14.01,2013-06-08 08:11:00,
2013-06-08 01:17:00,83.0,33.7,29.80,NW,315,0.0,0.0,17,0.00,,SKC,0.00,VWS V14.01,2013-06-08 08:17:00,
2013-06-08 01:22:00,82.0,32.9,29.80,WNW,292,3.0,3.0,17,0.00,,SKC,0.00,VWS V14.01,2013-06-08 08:22:00,
2013-06-08 01:27:00,82.0,32.9,29.80,WNW,292,1.0,2.0,17,0.00,,SKC,0.00,VWS V14.01,2013-06-08 08:27:00,
2013-06-08 01:32:00,82.0,32.9,29.79,WSW,248,3.0,3.0,17,0.00,,SKC,0.00,VWS V14.01,2013-06-08 08:32:00,
2013-06-08 01:38:00,81.0,33.5,29.79,NW,315,3.0,3.0,18,0.00,,SKC,0.00,VWS V14.01,2013-06-08 08:38:00,
2013-06-08 01:44:00,81.0,34.9,29.80,NNW,338,1.0,2.0,19,0.00,,SKC,0.00,VWS V14.01,2013-06-08 08:44:00,
2013-06-08 01:49:00,80.0,34.1,29.80,NNW,338,1.0,1.0,19,0.00,,SKC,0.00,VWS V14.01,2013-06-08 08:49:00,
2013-06-08 01:54:00,80.0,34.1,29.80,WNW,292,4.0,5.0,19,0.00,,SKC,0.00,VWS V14.01,2013-06-08 08:54:00,
2013-06-08 01:59:00,79.0,33.3,29.80,WNW,292,6.0,6.0,19,0.00,,SKC,0.00,VWS V14.01,2013-06-08 08:59:00,
2013-06-08 02:04:00,80.0,34.1,29.80,WNW,292,6.0,6.0,19,0.00,,SKC,0.00,VWS V14.01,2013-06-08 09:04:00,
2013-06-08 02:10:00,80.0,34.1,29.80,WNW,292,5.0,5.0,19,0.00,,SKC,0.00,VWS V14.01,2013-06-08 09:10:00,
2013-06-08 02:15:00,81.0,33.5,29.80,WSW,248,6.0,6.0,18,0.00,,SKC,0.00,VWS V14.01,2013-06-08 09:15:00,
2013-06-08 02:20:00,83.0,33.7,29.80,WSW,248,6.0,7.0,17,0.00,,SKC,0.00,VWS V14.01,2013-06-08 09:20:00,
2013-06-08 02:25:00,83.0,32.2,29.80,West,270,4.0,4.0,16,0.00,,SKC,0.00,VWS V14.01,2013-06-08 09:25:00,
2013-06-08 02:30:00,84.0,33.0,29.80,West,270,5.0,5.0,16,0.00,,SKC,0.00,VWS V14.01,2013-06-08 09:30:00,
2013-06-08 02:35:00,84.0,33.0,29.80,West,270,5.0,5.0,16,0.00,,SKC,0.00,VWS V14.01,2013-06-08 09:35:00,
2013-06-08 02:41:00,84.0,33.0,29.80,West,270,3.0,3.0,16,0.00,,SKC,0.00,VWS V14.01,2013-06-08 09:41:00,
2013-06-08 02:47:00,84.0,33.0,29.80,WNW,292,4.0,4.0,16,0.00,,SKC,0.00,VWS V14.01,2013-06-08 09:47:00,
2013-06-08 02:52:00,84.0,33.0,29.80,WNW,292,3.0,3.0,16,0.00,,SKC,0.00,VWS V14.01,2013-06-08 09:52:00,
2013-06-08 02:57:00,83.0,32.2,29.80,North,0,0.0,0.0,16,0.00,,SKC,0.00,VWS V14.01,2013-06-08 09:57:00,
2013-06-08 03:02:00,80.0,32.7,29.80,NNE,22,3.0,3.0,18,0.00,,SKC,0.00,VWS V14.01,2013-06-08 10:02:00,
2013-06-08 03:08:00,79.0,33.3,29.80,North,0,4.0,5.0,19,0.00,,SKC,0.00,VWS V14.01,2013-06-08 10:08:00,
2013-06-08 03:14:00,78.0,32.4,29.80,North,0,2.0,3.0,19,0.00,,SKC,0.00,VWS V14.01,2013-06-08 10:14:00,
2013-06-08 03:20:00,78.0,32.4,29.80,NNE,22,3.0,3.0,19,0.00,,SKC,0.00,VWS V14.01,2013-06-08 10:20:00,
2013-06-08 03:25:00,78.0,32.4,29.81,NE,45,4.0,5.0,19,0.00,,SKC,0.00,VWS V14.01,2013-06-08 10:25:00,
2013-06-08 03:30:00,78.0,32.4,29.81,North,0,1.0,2.0,19,0.00,,SKC,0.00,VWS V14.01,2013-06-08 10:30:00,
2013-06-08 03:35:00,78.0,32.4,29.81,North,0,0.0,0.0,19,0.00,,SKC,0.00,VWS V14.01,2013-06-08 10:35:00,
2013-06-08 03:40:00,78.0,32.4,29.81,NNW,338,3.0,3.0,19,0.00,,SKC,0.00,VWS V14.01,2013-06-08 10:40:00,
2013-06-08 03:46:00,78.0,32.4,29.81,NNW,338,1.0,3.0,19,0.00,,SKC,0.00,VWS V14.01,2013-06-08 10:46:00,
2013-06-08 03:51:00,78.0,32.4,29.81,North,0,1.0,2.0,19,0.00,,SKC,0.00,VWS V14.01,2013-06-08 10:51:00,
2013-06-08 03:57:00,78.0,32.4,29.81,NNW,338,2.0,4.0,19,0.00,,SKC,0.00,VWS V14.01,2013-06-08 10:57:00,
2013-06-08 04:02:00,78.0,32.4,29.81,NNE,22,1.0,1.0,19,0.00,,SKC,0.00,VWS V14.01,2013-06-08 11:02:00,
2013-06-08 04:07:00,78.0,32.4,29.81,NNE,22,4.0,5.0,19,0.00,,SKC,0.00,VWS V14.01,2013-06-08 11:07:00,
2013-06-08 04:12:00,79.0,33.3,29.81,NNE,22,2.0,3.0,19,0.00,,SKC,0.00,VWS V14.01,2013-06-08 11:12:00,
2013-06-08 04:18:00,79.0,33.3,29.81,NNE,22,1.0,2.0,19,0.00,,SKC,0.00,VWS V14.01,2013-06-08 11:18:00,
2013-06-08 04:24:00,79.0,33.3,29.81,North,0,0.0,0.0,19,0.00,,SKC,0.00,VWS V14.01,2013-06-08 11:24:00,
2013-06-08 04:29:00,79.0,33.3,29.81,North,0,3.0,3.0,19,0.00,,SKC,0.00,VWS V14.01,2013-06-08 11:29:00,
2013-06-08 04:34:00,78.0,32.4,29.81,North,0,3.0,3.0,19,0.00,,SKC,0.00,VWS V14.01,2013-06-08 11:34:00,
2013-06-08 04:39:00,78.0,32.4,29.81,NNW,338,0.0,0.0,19,0.00,,SKC,0.00,VWS V14.01,2013-06-08 11:39:00,
2013-06-08 04:44:00,78.0,32.4,29.81,NNW,338,0.0,0.0,19,0.00,,SKC,0.00,VWS V14.01,2013-06-08 11:44:00,
2013-06-08 04:50:00,78.0,32.4,29.81,North,0,0.0,0.0,19,0.00,,SKC,0.00,VWS V14.01,2013-06-08 11:50:00,
2013-06-08 04:56:00,78.0,32.4,29.81,NNE,22,0.0,0.0,19,0.00,,SKC,0.00,VWS V14.01,2013-06-08 11:56:00,
2013-06-08 05:02:00,78.0,32.4,29.81,North,0,0.0,0.0,19,0.00,,SKC,0.00,VWS V14.01,2013-06-08 12:02:00,
2013-06-08 05:07:00,78.0,32.4,29.81,North,0,0.0,0.0,19,0.00,,SKC,0.00,VWS V14.01,2013-06-08 12:07:00,
2013-06-08 05:12:00,78.0,32.4,29.81,North,0,0.0,0.0,19,0.00,,SKC,0.00,VWS V14.01,2013-06-08 12:12:00,
2013-06-08 05:17:00,78.0,32.4,29.81,NW,315,0.0,0.0,19,0.00,,SKC,0.00,VWS V14.01,2013-06-08 12:17:00,
2013-06-08 05:23:00,78.0,32.4,29.81,North,0,0.0,0.0,19,0.00,,SKC,0.00,VWS V14.01,2013-06-08 12:23:00,
2013-06-08 05:28:00,79.0,33.3,29.81,NNE,22,0.0,0.0,19,0.00,,SKC,0.00,VWS V14.01,2013-06-08 12:28:00,
2013-06-08 05:33:00,79.0,31.9,29.82,NNE,22,3.0,3.0,18,0.00,,SKC,0.00,VWS V14.01,2013-06-08 12:33:00,
2013-06-08 05:38:00,79.0,33.3,29.82,NNE,22,3.0,3.0,19,0.00,,SKC,0.00,VWS V14.01,2013-06-08 12:38:00,
2013-06-08 05:43:00,79.0,33.3,29.82,North,0,5.0,5.0,19,0.00,,SKC,0.00,VWS V14.01,2013-06-08 12:43:00,
2013-06-08 05:49:00,79.0,33.3,29.82,North,0,3.0,3.0,19,0.00,,SKC,0.00,VWS V14.01,2013-06-08 12:49:00,
2013-06-08 05:55:00,80.0,34.1,29.82,NNE,22,4.0,4.0,19,0.00,,SKC,0.00,VWS V14.01,2013-06-08 12:55:00,
2013-06-08 06:00:00,80.0,34.1,29.83,North,0,4.0,5.0,19,0.00,,SKC,0.00,VWS V14.01,2013-06-08 13:00:00,
2013-06-08 06:06:00,81.0,34.9,29.83,NNE,22,3.0,3.0,19,0.00,,SKC,0.00,VWS V14.01,2013-06-08 13:06:00,
2013-06-08 06:12:00,82.0,34.4,29.83,NNE,22,3.0,3.0,18,0.00,,SKC,0.00,VWS V14.01,2013-06-08 13:12:00,
2013-06-08 06:17:00,82.0,34.4,29.83,NNE,22,3.0,4.0,18,0.00,,SKC,0.00,VWS V14.01,2013-06-08 13:17:00,
2013-06-08 06:22:00,81.0,33.5,29.83,NW,315,0.0,1.0,18,0.00,,SKC,0.00,VWS V14.01,2013-06-08 13:22:00,
2013-06-08 06:28:00,82.0,35.7,29.83,North,0,3.0,3.0,19,0.00,,SKC,0.00,VWS V14.01,2013-06-08 13:28:00,
2013-06-08 06:33:00,82.0,35.7,29.83,NNE,22,0.0,1.0,19,0.00,,SKC,0.00,VWS V14.01,2013-06-08 13:33:00,
2013-06-08 06:38:00,82.0,37.0,29.84,SSE,158,2.0,3.0,20,0.00,,SKC,0.00,VWS V14.01,2013-06-08 13:38:00,
2013-06-08 06:43:00,81.0,40.8,29.84,SSE,158,0.0,0.0,24,0.00,,SKC,0.00,VWS V14.01,2013-06-08 13:43:00,
2013-06-08 06:48:00,79.0,39.2,29.84,SSE,158,0.0,0.0,24,0.00,,SKC,0.00,VWS V14.01,2013-06-08 13:48:00,
2013-06-08 06:54:00,79.0,40.2,29.84,SSE,158,0.0,0.0,25,0.00,,SKC,0.00,VWS V14.01,2013-06-08 13:54:00,
2013-06-08 06:59:00,79.0,40.2,29.84,SSE,158,0.0,0.0,25,0.00,,SKC,0.00,VWS V14.01,2013-06-08 13:59:00,
2013-06-08 07:04:00,79.0,39.2,29.84,SSE,158,0.0,0.0,24,0.00,,SKC,0.00,VWS V14.01,2013-06-08 14:04:00,
2013-06-08 07:09:00,79.0,38.1,29.85,SSE,158,0.0,0.0,23,0.00,,SKC,0.00,VWS V14.01,2013-06-08 14:09:00,
2013-06-08 07:14:00,79.0,38.1,29.85,SSE,158,0.0,0.0,23,0.00,,SKC,0.00,VWS V14.01,2013-06-08 14:14:00,
2013-06-08 07:19:00,79.0,37.0,29.85,SSE,158,0.0,0.0,22,0.00,,SKC,0.00,VWS V14.01,2013-06-08 14:19:00,
2013-06-08 07:24:00,79.0,37.0,29.85,SSE,158,0.0,0.0,22,0.00,,SKC,0.00,VWS V14.01,2013-06-08 14:24:00,
2013-06-08 07:29:00,80.0,36.6,29.85,SSE,158,0.0,0.0,21,0.00,,SKC,0.00,VWS V14.01,2013-06-08 14:29:00,
2013-06-08 07:34:00,80.0,34.1,29.85,SSE,158,0.0,0.0,19,0.00,,SKC,0.00,VWS V14.01,2013-06-08 14:34:00,
2013-06-08 07:39:00,81.0,34.9,29.85,SSE,158,0.0,0.0,19,0.00,,SKC,0.00,VWS V14.01,2013-06-08 14:39:00,
2013-06-08 07:45:00,82.0,34.4,29.86,SSE,158,0.0,0.0,18,0.00,,SKC,0.00,VWS V14.01,2013-06-08 14:45:00,
2013-06-08 07:50:00,82.0,37.0,29.86,SSE,158,0.0,0.0,20,0.00,,SKC,0.00,VWS V14.01,2013-06-08 14:50:00,
2013-06-08 07:55:00,83.0,33.7,29.86,West,270,3.0,3.0,17,0.00,,SKC,0.00,VWS V14.01,2013-06-08 14:55:00,
2013-06-08 08:00:00,84.0,34.5,29.86,WSW,248,0.0,0.0,17,0.00,,SKC,0.00,VWS V14.01,2013-06-08 15:00:00,
2013-06-08 08:05:00,84.0,36.0,29.86,WSW,248,4.0,4.0,18,0.00,,SKC,0.00,VWS V14.01,2013-06-08 15:05:00,
2013-06-08 08:10:00,85.0,36.8,29.86,West,270,0.0,0.0,18,0.00,,SKC,0.00,VWS V14.01,2013-06-08 15:10:00,
2013-06-08 08:15:00,85.0,35.3,29.86,WSW,248,5.0,5.0,17,0.00,,SKC,0.00,VWS V14.01,2013-06-08 15:15:00,
2013-06-08 08:20:00,86.0,36.2,29.86,WSW,248,3.0,3.0,17,0.00,,SKC,0.00,VWS V14.01,2013-06-08 15:20:00,
2013-06-08 08:25:00,86.0,34.6,29.86,WSW,248,5.0,5.0,16,0.00,,SKC,0.00,VWS V14.01,2013-06-08 15:25:00,
2013-06-08 08:30:00,86.0,33.0,29.86,SW,225,6.0,6.0,15,0.00,,SKC,0.00,VWS V14.01,2013-06-08 15:30:00,
2013-06-08 08:35:00,87.0,33.8,29.86,WSW,248,3.0,5.0,15,0.00,,SKC,0.00,VWS V14.01,2013-06-08 15:35:00,
2013-06-08 08:40:00,87.0,33.8,29.86,SW,225,3.0,3.0,15,0.00,,SKC,0.00,VWS V14.01,2013-06-08 15:40:00,
2013-06-08 08:45:00,88.0,32.9,29.86,WSW,248,5.0,8.0,14,0.00,,SKC,0.00,VWS V14.01,2013-06-08 15:45:00,
2013-06-08 08:50:00,88.0,32.9,29.86,WSW,248,5.0,5.0,14,0.00,,SKC,0.00,VWS V14.01,2013-06-08 15:50:00,
2013-06-08 08:55:00,88.0,32.9,29.87,WSW,248,5.0,5.0,14,0.00,,SKC,0.00,VWS V14.01,2013-06-08 15:55:00,
2013-06-08 09:00:00,89.0,33.7,29.87,WSW,248,4.0,5.0,14,0.00,,SKC,0.00,VWS V14.01,2013-06-08 16:00:00,
2013-06-08 09:05:00,89.0,33.7,29.87,SW,225,5.0,5.0,14,0.00,,SKC,0.00,VWS V14.01,2013-06-08 16:05:00,
2013-06-08 09:10:00,90.0,34.5,29.87,SW,225,1.0,3.0,14,0.00,,SKC,0.00,VWS V14.01,2013-06-08 16:10:00,
2013-06-08 09:15:00,90.0,32.6,29.87,South,180,3.0,5.0,13,0.00,,SKC,0.00,VWS V14.01,2013-06-08 16:15:00,
2013-06-08 09:20:00,90.0,32.6,29.87,SW,225,6.0,6.0,13,0.00,,SKC,0.00,VWS V14.01,2013-06-08 16:20:00,
2013-06-08 09:25:00,91.0,31.4,29.87,South,180,3.0,4.0,12,0.00,,SKC,0.00,VWS V14.01,2013-06-08 16:25:00,
2013-06-08 09:30:00,91.0,31.4,29.87,SSW,202,2.0,3.0,12,0.00,,SKC,0.00,VWS V14.01,2013-06-08 16:30:00,
2013-06-08 09:35:00,91.0,31.4,29.87,WSW,248,6.0,9.0,12,0.00,,SKC,0.00,VWS V14.01,2013-06-08 16:35:00,
2013-06-08 09:40:00,90.0,30.6,29.87,West,270,4.0,5.0,12,0.00,,SKC,0.00,VWS V14.01,2013-06-08 16:40:00,
2013-06-08 09:45:00,91.0,31.4,29.87,WSW,248,5.0,5.0,12,0.00,,SKC,0.00,VWS V14.01,2013-06-08 16:45:00,
2013-06-08 09:50:00,91.0,31.4,29.87,WSW,248,5.0,5.0,12,0.00,,SKC,0.00,VWS V14.01,2013-06-08 16:50:00,
2013-06-08 09:55:00,91.0,31.4,29.87,South,180,5.0,6.0,12,0.00,,SKC,0.00,VWS V14.01,2013-06-08 16:55:00,
2013-06-08 10:00:00,92.0,30.0,29.87,WSW,248,5.0,5.0,11,0.00,,SKC,0.00,VWS V14.01,2013-06-08 17:00:00,
2013-06-08 10:05:00,92.0,30.0,29.87,SW,225,5.0,6.0,11,0.00,,SKC,0.00,VWS V14.01,2013-06-08 17:05:00,
2013-06-08 10:10:00,93.0,33.0,29.87,SW,225,3.0,3.0,12,0.00,,SKC,0.00,VWS V14.01,2013-06-08 17:10:00,
2013-06-08 10:15:00,93.0,30.8,29.87,South,180,3.0,3.0,11,0.00,,SKC,0.00,VWS V14.01,2013-06-08 17:15:00,
2013-06-08 10:20:00,93.0,33.0,29.87,SW,225,6.0,6.0,12,0.00,,SKC,0.00,VWS V14.01,2013-06-08 17:20:00,
2013-06-08 10:25:00,93.0,30.8,29.88,South,180,1.0,3.0,11,0.00,,SKC,0.00,VWS V14.01,2013-06-08 17:25:00,
2013-06-08 10:30:00,93.0,30.8,29.88,West,270,3.0,4.0,11,0.00,,SKC,0.00,VWS V14.01,2013-06-08 17:30:00,
2013-06-08 10:35:00,93.0,33.0,29.88,WNW,292,4.0,5.0,12,0.00,,SKC,0.00,VWS V14.01,2013-06-08 17:35:00,
2013-06-08 10:40:00,93.0,30.8,29.88,West,270,7.0,10.0,11,0.00,,SKC,0.00,VWS V14.01,2013-06-08 17:40:00,
2013-06-08 10:45:00,94.0,33.7,29.88,NNW,338,3.0,3.0,12,0.00,,SKC,0.00,VWS V14.01,2013-06-08 17:45:00,
2013-06-08 10:50:00,95.0,32.3,29.87,SW,225,6.0,8.0,11,0.00,,SKC,0.00,VWS V14.01,2013-06-08 17:50:00,
2013-06-08 10:55:00,95.0,32.3,29.87,WSW,248,8.0,8.0,11,0.00,,SKC,0.00,VWS V14.01,2013-06-08 17:55:00,
2013-06-08 11:00:00,95.0,30.0,29.87,West,270,8.0,8.0,10,0.00,,SKC,0.00,VWS V14.01,2013-06-08 18:00:00,
2013-06-08 11:05:00,95.0,30.0,29.87,West,270,8.0,9.0,10,0.00,,SKC,0.00,VWS V14.01,2013-06-08 18:05:00,
2013-06-08 11:10:00,96.0,28.1,29.87,WSW,248,8.0,8.0,9,0.00,,SKC,0.00,VWS V14.01,2013-06-08 18:10:00,
2013-06-08 11:15:00,96.0,28.1,29.87,West,270,6.0,6.0,9,0.00,,SKC,0.00,VWS V14.01,2013-06-08 18:15:00,
2013-06-08 11:20:00,97.0,28.9,29.87,SW,225,3.0,5.0,9,0.00,,SKC,0.00,VWS V14.01,2013-06-08 18:20:00,
2013-06-08 11:25:00,97.0,28.9,29.87,West,270,3.0,3.0,9,0.00,,SKC,0.00,VWS V14.01,2013-06-08 18:25:00,
2013-06-08 11:30:00,96.0,30.7,29.87,WSW,248,5.0,5.0,10,0.00,,SKC,0.00,VWS V14.01,2013-06-08 18:30:00,
2013-06-08 11:35:00,97.0,28.9,29.87,West,270,1.0,2.0,9,0.00,,SKC,0.00,VWS V14.01,2013-06-08 18:35:00,
2013-06-08 11:40:00,96.0,30.7,29.87,WNW,292,3.0,4.0,10,0.00,,SKC,0.00,VWS V14.01,2013-06-08 18:40:00,
2013-06-08 11:45:00,97.0,28.9,29.87,West,270,9.0,11.0,9,0.00,,SKC,0.00,VWS V14.01,2013-06-08 18:45:00,
2013-06-08 11:50:00,97.0,28.9,29.87,SW,225,11.0,12.0,9,0.00,,SKC,0.00,VWS V14.01,2013-06-08 18:50:00,
2013-06-08 11:55:00,99.0,30.4,29.87,WSW,248,5.0,6.0,9,0.00,,SKC,0.00,VWS V14.01,2013-06-08 18:55:00,
2013-06-08 12:00:00,98.0,32.2,29.87,NW,315,6.0,6.0,10,0.00,,SKC,0.00,VWS V14.01,2013-06-08 19:00:00,
2013-06-08 12:05:00,98.0,29.6,29.87,West,270,8.0,9.0,9,0.00,,SKC,0.00,VWS V14.01,2013-06-08 19:05:00,
2013-06-08 12:10:00,99.0,30.4,29.87,WSW,248,4.0,5.0,9,0.00,,SKC,0.00,VWS V14.01,2013-06-08 19:10:00,
2013-06-08 12:15:00,99.0,30.4,29.87,NW,315,6.0,6.0,9,0.00,,SKC,0.00,VWS V14.01,2013-06-08 19:15:00,
2013-06-08 12:20:00,99.0,30.4,29.87,WNW,292,10.0,12.0,9,0.00,,SKC,0.00,VWS V14.01,2013-06-08 19:20:00,
2013-06-08 12:25:00,98.0,29.6,29.87,WSW,248,1.0,3.0,9,0.00,,SKC,0.00,VWS V14.01,2013-06-08 19:25:00,
2013-06-08 12:30:00,99.0,33.0,29.87,WNW,292,3.0,3.0,10,0.00,,SKC,0.00,VWS V14.01,2013-06-08 19:30:00,
2013-06-08 12:35:00,100.0,31.1,29.87,SW,225,9.0,9.0,9,0.00,,SKC,0.00,VWS V14.01,2013-06-08 19:35:00,
2013-06-08 12:40:00,99.0,30.4,29.87,WSW,248,10.0,10.0,9,0.00,,SKC,0.00,VWS V14.01,2013-06-08 19:40:00,
2013-06-08 12:45:00,99.0,30.4,29.87,WNW,292,7.0,7.0,9,0.00,,SKC,0.00,VWS V14.01,2013-06-08 19:45:00,
2013-06-08 12:50:00,100.0,28.2,29.87,WSW,248,7.0,10.0,8,0.00,,SKC,0.00,VWS V14.01,2013-06-08 19:50:00,
2013-06-08 12:55:00,100.0,28.2,29.86,WNW,292,11.0,11.0,8,0.00,,SKC,0.00,VWS V14.01,2013-06-08 19:55:00,
2013-06-08 13:00:00,99.0,30.4,29.86,SW,225,5.0,5.0,9,0.00,,SKC,0.00,VWS V14.01,2013-06-08 20:00:00,
2013-06-08 13:05:00,100.0,31.1,29.86,WNW,292,10.0,11.0,9,0.00,,SKC,0.00,VWS V14.01,2013-06-08 20:05:00,
2013-06-08 13:10:00,101.0,29.0,29.86,SW,225,8.0,10.0,8,0.00,,SKC,0.00,VWS V14.01,2013-06-08 20:10:00,
2013-06-08 13:15:00,100.0,28.2,29.86,WNW,292,7.0,7.0,8,0.00,,SKC,0.00,VWS V14.01,2013-06-08 20:15:00,
2013-06-08 13:20:00,100.0,28.2,29.86,West,270,10.0,12.0,8,0.00,,SKC,0.00,VWS V14.01,2013-06-08 20:20:00,
2013-06-08 13:25:00,100.0,31.1,29.86,West,270,6.0,8.0,9,0.00,,SKC,0.00,VWS V14.01,2013-06-08 20:25:00,
2013-06-08 13:30:00,101.0,29.0,29.85,WSW,248,6.0,7.0,8,0.00,,SKC,0.00,VWS V14.01,2013-06-08 20:30:00,
2013-06-08 13:35:00,101.0,29.0,29.85,WNW,292,8.0,12.0,8,0.00,,SKC,0.00,VWS V14.01,2013-06-08 20:35:00,
2013-06-08 13:40:00,101.0,29.0,29.85,West,270,16.0,18.0,8,0.00,,SKC,0.00,VWS V14.01,2013-06-08 20:40:00,
2013-06-08 13:45:00,101.0,29.0,29.85,WNW,292,16.0,16.0,8,0.00,,SKC,0.00,VWS V14.01,2013-06-08 20:45:00,
2013-06-08 13:50:00,101.0,29.0,29.85,West,270,10.0,11.0,8,0.00,,SKC,0.00,VWS V14.01,2013-06-08 20:50:00,
2013-06-08 13:55:00,101.0,29.0,29.85,WNW,292,12.0,12.0,8,0.00,,SKC,0.00,VWS V14.01,2013-06-08 20:55:00,
2013-06-08 14:00:00,101.0,29.0,29.85,West,270,7.0,10.0,8,0.00,,SKC,0.00,VWS V14.01,2013-06-08 21:00:00,
2013-06-08 14:05:00,101.0,29.0,29.85,NW,315,10.0,11.0,8,0.00,,SKC,0.00,VWS V14.01,2013-06-08 21:05:00,
2013-06-08 14:10:00,101.0,29.0,29.85,WSW,248,11.0,11.0,8,0.00,,SKC,0.00,VWS V14.01,2013-06-08 21:10:00,
2013-06-08 14:15:00,102.0,29.7,29.85,NW,315,11.0,14.0,8,0.00,,SKC,0.00,VWS V14.01,2013-06-08 21:15:00,
2013-06-08 14:20:00,101.0,29.0,29.85,WNW,292,8.0,11.0,8,0.00,,SKC,0.00,VWS V14.01,2013-06-08 21:20:00,
2013-06-08 14:25:00,102.0,29.7,29.85,West,270,9.0,11.0,8,0.00,,SKC,0.00,VWS V14.01,2013-06-08 21:25:00,
2013-06-08 14:30:00,101.0,29.0,29.85,West,270,5.0,6.0,8,0.00,,SKC,0.00,VWS V14.01,2013-06-08 21:30:00,
2013-06-08 14:35:00,102.0,29.7,29.85,WSW,248,6.0,8.0,8,0.00,,SKC,0.00,VWS V14.01,2013-06-08 21:35:00,
2013-06-08 14:40:00,102.0,29.7,29.84,West,270,16.0,16.0,8,0.00,,SKC,0.00,VWS V14.01,2013-06-08 21:40:00,
2013-06-08 14:45:00,101.0,29.0,29.84,SW,225,8.0,10.0,8,0.00,,SKC,0.00,VWS V14.01,2013-06-08 21:45:00,
2013-06-08 14:50:00,101.0,31.9,29.84,SW,225,8.0,8.0,9,0.00,,SKC,0.00,VWS V14.01,2013-06-08 21:50:00,
2013-06-08 14:55:00,102.0,32.6,29.84,West,270,10.0,11.0,9,0.00,,SKC,0.00,VWS V14.01,2013-06-08 21:55:00,
2013-06-08 15:00:00,102.0,32.6,29.84,West,270,11.0,13.0,9,0.00,,SKC,0.00,VWS V14.01,2013-06-08 22:00:00,
2013-06-08 15:05:00,102.0,32.6,29.84,SW,225,7.0,8.0,9,0.00,,SKC,0.00,VWS V14.01,2013-06-08 22:05:00,
2013-06-08 15:10:00,102.0,32.6,29.84,West,270,11.0,13.0,9,0.00,,SKC,0.00,VWS V14.01,2013-06-08 22:10:00,
2013-06-08 15:15:00,102.0,32.6,29.84,West,270,7.0,7.0,9,0.00,,SKC,0.00,VWS V14.01,2013-06-08 22:15:00,
2013-06-08 15:20:00,102.0,32.6,29.84,WNW,292,14.0,14.0,9,0.00,,SKC,0.00,VWS V14.01,2013-06-08 22:20:00,
2013-06-08 15:25:00,102.0,32.6,29.83,WSW,248,11.0,12.0,9,0.00,,SKC,0.00,VWS V14.01,2013-06-08 22:25:00,
2013-06-08 15:30:00,102.0,32.6,29.83,WSW,248,12.0,13.0,9,0.00,,SKC,0.00,VWS V14.01,2013-06-08 22:30:00,
2013-06-08 15:35:00,102.0,32.6,29.83,West,270,6.0,9.0,9,0.00,,SKC,0.00,VWS V14.01,2013-06-08 22:35:00,
2013-06-08 15:40:00,103.0,30.4,29.83,West,270,11.0,12.0,8,0.00,,SKC,0.00,VWS V14.01,2013-06-08 22:40:00,
2013-06-08 15:45:00,102.0,32.6,29.83,WNW,292,12.0,12.0,9,0.00,,SKC,0.00,VWS V14.01,2013-06-08 22:45:00,
2013-06-08 15:50:00,102.0,32.6,29.83,West,270,10.0,10.0,9,0.00,,SKC,0.00,VWS V14.01,2013-06-08 22:50:00,
2013-06-08 15:55:00,102.0,29.7,29.83,WNW,292,10.0,12.0,8,0.00,,SKC,0.00,VWS V14.01,2013-06-08 22:55:00,
2013-06-08 16:00:00,102.0,29.7,29.83,West,270,10.0,12.0,8,0.00,,SKC,0.00,VWS V14.01,2013-06-08 23:00:00,
2013-06-08 16:05:00,102.0,29.7,29.83,West,270,10.0,11.0,8,0.00,,SKC,0.00,VWS V14.01,2013-06-08 23:05:00,
2013-06-08 16:10:00,102.0,29.7,29.83,NW,315,9.0,12.0,8,0.00,,SKC,0.00,VWS V14.01,2013-06-08 23:10:00,
2013-06-08 16:15:00,102.0,29.7,29.82,West,270,8.0,8.0,8,0.00,,SKC,0.00,VWS V14.01,2013-06-08 23:15:00,
2013-06-08 16:20:00,103.0,30.4,29.82,West,270,10.0,12.0,8,0.00,,SKC,0.00,VWS V14.01,2013-06-08 23:20:00,
2013-06-08 16:25:00,103.0,30.4,29.83,West,270,8.0,8.0,8,0.00,,SKC,0.00,VWS V14.01,2013-06-08 23:25:00,
2013-06-08 16:30:00,102.0,29.7,29.82,WSW,248,8.0,11.0,8,0.00,,SKC,0.00,VWS V14.01,2013-06-08 23:30:00,
2013-06-08 16:35:00,102.0,29.7,29.82,South,180,10.0,13.0,8,0.00,,SKC,0.00,VWS V14.01,2013-06-08 23:35:00,
2013-06-08 16:40:00,101.0,29.0,29.82,NW,315,11.0,13.0,8,0.00,,SKC,0.00,VWS V14.01,2013-06-08 23:40:00,
2013-06-08 16:45:00,101.0,31.9,29.82,NW,315,9.0,9.0,9,0.00,,SKC,0.00,VWS V14.01,2013-06-08 23:45:00,
2013-06-08 16:50:00,101.0,29.0,29.82,WSW,248,15.0,15.0,8,0.00,,SKC,0.00,VWS V14.01,2013-06-08 23:50:00,
2013-06-08 16:55:00,101.0,29.0,29.82,WSW,248,8.0,11.0,8,0.00,,SKC,0.00,VWS V14.01,2013-06-08 23:55:00,
2013-06-08 17:00:00,101.0,29.0,29.82,WNW,292,5.0,9.0,8,0.00,,SKC,0.00,VWS V14.01,2013-06-09 00:00:00,
2013-06-08 17:05:00,102.0,29.7,29.82,WNW,292,5.0,6.0,8,0.00,,SKC,0.00,VWS V14.01,2013-06-09 00:05:00,
2013-06-08 17:10:00,102.0,29.7,29.82,West,270,9.0,9.0,8,0.00,,SKC,0.00,VWS V14.01,2013-06-09 00:10:00,
2013-06-08 17:15:00,102.0,29.7,29.82,WSW,248,6.0,7.0,8,0.00,,SKC,0.00,VWS V14.01,2013-06-09 00:15:00,
2013-06-08 17:20:00,102.0,29.7,29.82,West,270,16.0,16.0,8,0.00,,SKC,0.00,VWS V14.01,2013-06-09 00:20:00,
2013-06-08 17:25:00,101.0,29.0,29.82,West,270,6.0,9.0,8,0.00,,SKC,0.00,VWS V14.01,2013-06-09 00:25:00,
2013-06-08 17:30:00,101.0,29.0,29.82,WNW,292,10.0,10.0,8,0.00,,SKC,0.00,VWS V14.01,2013-06-09 00:30:00,
2013-06-08 17:35:00,100.0,31.1,29.82,West,270,13.0,13.0,9,0.00,,SKC,0.00,VWS V14.01,2013-06-09 00:35:00,
2013-06-08 17:40:00,100.0,31.1,29.82,West,270,8.0,11.0,9,0.00,,SKC,0.00,VWS V14.01,2013-06-09 00:40:00,
2013-06-08 17:45:00,101.0,31.9,29.82,NNW,338,6.0,6.0,9,0.00,,SKC,0.00,VWS V14.01,2013-06-09 00:45:00,
2013-06-08 17:50:00,101.0,31.9,29.82,WSW,248,10.0,11.0,9,0.00,,SKC,0.00,VWS V14.01,2013-06-09 00:50:00,
2013-06-08 17:55:00,101.0,31.9,29.82,NW,315,13.0,14.0,9,0.00,,SKC,0.00,VWS V14.01,2013-06-09 00:55:00,
2013-06-08 18:00:00,100.0,31.1,29.82,West,270,6.0,10.0,9,0.00,,SKC,0.00,VWS V14.01,2013-06-09 01:00:00,
2013-06-08 18:05:00,100.0,31.1,29.82,West,270,8.0,8.0,9,0.00,,SKC,0.00,VWS V14.01,2013-06-09 01:05:00,
2013-06-08 18:10:00,100.0,31.1,29.82,WSW,248,6.0,8.0,9,0.00,,SKC,0.00,VWS V14.01,2013-06-09 01:10:00,
2013-06-08 18:15:00,100.0,31.1,29.82,West,270,8.0,11.0,9,0.00,,SKC,0.00,VWS V14.01,2013-06-09 01:15:00,
2013-06-08 18:20:00,100.0,31.1,29.82,West,270,6.0,9.0,9,0.00,,SKC,0.00,VWS V14.01,2013-06-09 01:20:00,
2013-06-08 18:25:00,99.0,30.4,29.82,WNW,292,7.0,7.0,9,0.00,,SKC,0.00,VWS V14.01,2013-06-09 01:25:00,
2013-06-08 18:30:00,100.0,31.1,29.82,WNW,292,8.0,9.0,9,0.00,,SKC,0.00,VWS V14.01,2013-06-09 01:30:00,
2013-06-08 18:35:00,99.0,30.4,29.82,West,270,11.0,11.0,9,0.00,,SKC,0.00,VWS V14.01,2013-06-09 01:35:00,
2013-06-08 18:40:00,99.0,30.4,29.82,West,270,11.0,11.0,9,0.00,,SKC,0.00,VWS V14.01,2013-06-09 01:40:00,
2013-06-08 18:45:00,99.0,30.4,29.82,WSW,248,8.0,8.0,9,0.00,,SKC,0.00,VWS V14.01,2013-06-09 01:45:00,
2013-06-08 18:50:00,99.0,30.4,29.82,WSW,248,5.0,6.0,9,0.00,,SKC,0.00,VWS V14.01,2013-06-09 01:50:00,
2013-06-08 18:55:00,98.0,32.2,29.83,SW,225,3.0,5.0,10,0.00,,SKC,0.00,VWS V14.01,2013-06-09 01:55:00,
2013-06-08 19:00:00,98.0,32.2,29.82,West,270,5.0,6.0,10,0.00,,SKC,0.00,VWS V14.01,2013-06-09 02:00:00,
2013-06-08 19:05:00,98.0,32.2,29.83,West,270,8.0,11.0,10,0.00,,SKC,0.00,VWS V14.01,2013-06-09 02:05:00,
2013-06-08 19:10:00,97.0,31.5,29.83,West,270,8.0,8.0,10,0.00,,SKC,0.00,VWS V14.01,2013-06-09 02:10:00,
2013-06-08 19:15:00,97.0,31.5,29.83,WNW,292,8.0,10.0,10,0.00,,SKC,0.00,VWS V14.01,2013-06-09 02:15:00,
2013-06-08 19:20:00,97.0,31.5,29.83,WNW,292,7.0,7.0,10,0.00,,SKC,0.00,VWS V14.01,2013-06-09 02:20:00,
2013-06-08 19:25:00,96.0,30.7,29.83,West,270,6.0,8.0,10,0.00,,SKC,0.00,VWS V14.01,2013-06-09 02:25:00,
2013-06-08 19:30:00,96.0,30.7,29.83,West,270,8.0,8.0,10,0.00,,SKC,0.00,VWS V14.01,2013-06-09 02:30:00,
2013-06-08 19:35:00,96.0,33.1,29.83,WSW,248,3.0,3.0,11,0.00,,SKC,0.00,VWS V14.01,2013-06-09 02:35:00,
2013-06-08 19:40:00,95.0,32.3,29.83,West,270,2.0,3.0,11,0.00,,SKC,0.00,VWS V14.01,2013-06-09 02:40:00,
2013-06-08 19:45:00,95.0,32.3,29.84,West,270,3.0,3.0,11,0.00,,SKC,0.00,VWS V14.01,2013-06-09 02:45:00,
2013-06-08 19:50:00,94.0,31.6,29.83,West,270,4.0,4.0,11,0.00,,SKC,0.00,VWS V14.01,2013-06-09 02:50:00,
2013-06-08 19:55:00,94.0,31.6,29.84,WSW,248,5.0,5.0,11,0.00,,SKC,0.00,VWS V14.01,2013-06-09 02:55:00,
2013-06-08 20:00:00,94.0,31.6,29.84,WSW,248,5.0,5.0,11,0.00,,SKC,0.00,VWS V14.01,2013-06-09 03:00:00,
2013-06-08 20:05:00,93.0,30.8,29.84,WNW,292,4.0,5.0,11,0.00,,SKC,0.00,VWS V14.01,2013-06-09 03:05:00,
2013-06-08 20:10:00,93.0,30.8,29.84,WSW,248,5.0,6.0,11,0.00,,SKC,0.00,VWS V14.01,2013-06-09 03:10:00,
2013-06-08 20:15:00,93.0,30.8,29.84,WNW,292,4.0,5.0,11,0.00,,SKC,0.00,VWS V14.01,2013-06-09 03:15:00,
2013-06-08 20:20:00,92.0,30.0,29.85,WNW,292,4.0,4.0,11,0.00,,SKC,0.00,VWS V14.01,2013-06-09 03:20:00,
2013-06-08 20:25:00,92.0,32.2,29.85,NW,315,3.0,3.0,12,0.00,,SKC,0.00,VWS V14.01,2013-06-09 03:25:00,
2013-06-08 20:30:00,92.0,32.2,29.85,WNW,292,12.0,13.0,12,0.00,,SKC,0.00,VWS V14.01,2013-06-09 03:30:00,
2013-06-08 20:35:00,92.0,30.0,29.85,West,270,10.0,10.0,11,0.00,,SKC,0.00,VWS V14.01,2013-06-09 03:35:00,
2013-06-08 20:40:00,93.0,33.0,29.85,WSW,248,5.0,6.0,12,0.00,,SKC,0.00,VWS V14.01,2013-06-09 03:40:00,
2013-06-08 20:45:00,92.0,32.2,29.86,WNW,292,3.0,5.0,12,0.00,,SKC,0.00,VWS V14.01,2013-06-09 03:45:00,
2013-06-08 20:50:00,92.0,32.2,29.86,NW,315,5.0,7.0,12,0.00,,SKC,0.00,VWS V14.01,2013-06-09 03:50:00,
2013-06-08 20:55:00,92.0,32.2,29.86,West,270,4.0,5.0,12,0.00,,SKC,0.00,VWS V14.01,2013-06-09 03:55:00,
2013-06-08 21:00:00,92.0,32.2,29.87,North,0,0.0,0.0,12,0.00,,SKC,0.00,VWS V14.01,2013-06-09 04:00:00,
2013-06-08 21:01:00,92.0,32.2,29.87,NNE,22,0.0,0.0,12,0.00,,SKC,0.00,VWS V14.01,2013-06-09 04:01:00,
2013-06-08 21:02:00,91.0,31.4,29.87,NW,315,0.0,1.0,12,0.00,,SKC,0.00,VWS V14.01,2013-06-09 04:02:00,
2013-06-08 21:03:00,91.0,31.4,29.87,NW,315,3.0,3.0,12,0.00,,SKC,0.00,VWS V14.01,2013-06-09 04:03:00,
2013-06-08 21:05:00,91.0,31.4,29.87,NW,315,5.0,5.0,12,0.00,,SKC,0.00,VWS V14.01,2013-06-09 04:05:00,
2013-06-08 21:07:00,91.0,31.4,29.87,NW,315,3.0,4.0,12,0.00,,SKC,0.00,VWS V14.01,2013-06-09 04:07:00,
2013-06-08 21:12:00,90.0,30.6,29.87,NNW,338,0.0,0.0,12,0.00,,SKC,0.00,VWS V14.01,2013-06-09 04:12:00,
2013-06-08 21:17:00,90.0,32.6,29.87,North,0,0.0,0.0,13,0.00,,SKC,0.00,VWS V14.01,2013-06-09 04:17:00,
2013-06-08 21:22:00,89.0,31.8,29.87,NW,315,0.0,0.0,13,0.00,,SKC,0.00,VWS V14.01,2013-06-09 04:22:00,
2013-06-08 21:27:00,88.0,31.0,29.87,NW,315,0.0,0.0,13,0.00,,SKC,0.00,VWS V14.01,2013-06-09 04:27:00,
2013-06-08 21:32:00,88.0,32.9,29.88,NW,315,0.0,0.0,14,0.00,,SKC,0.00,VWS V14.01,2013-06-09 04:32:00,
2013-06-08 21:37:00,88.0,31.0,29.88,NW,315,0.0,0.0,13,0.00,,SKC,0.00,VWS V14.01,2013-06-09 04:37:00,
2013-06-08 21:42:00,88.0,31.0,29.88,NW,315,0.0,0.0,13,0.00,,SKC,0.00,VWS V14.01,2013-06-09 04:42:00,
2013-06-08 21:47:00,87.0,32.1,29.88,NW,315,0.0,0.0,14,0.00,,SKC,0.00,VWS V14.01,2013-06-09 04:47:00,
2013-06-08 21:52:00,87.0,32.1,29.89,NW,315,0.0,0.0,14,0.00,,SKC,0.00,VWS V14.01,2013-06-09 04:52:00,
2013-06-08 21:57:00,86.0,31.3,29.89,South,180,0.0,0.0,14,0.00,,SKC,0.00,VWS V14.01,2013-06-09 04:57:00,
2013-06-08 22:02:00,86.0,31.3,29.89,SW,225,1.0,2.0,14,0.00,,SKC,0.00,VWS V14.01,2013-06-09 05:02:00,
2013-06-08 22:07:00,86.0,33.0,29.89,West,270,0.0,0.0,15,0.00,,SKC,0.00,VWS V14.01,2013-06-09 05:07:00,
2013-06-08 22:12:00,86.0,31.3,29.89,West,270,0.0,0.0,14,0.00,,SKC,0.00,VWS V14.01,2013-06-09 05:12:00,
2013-06-08 22:17:00,85.0,32.2,29.89,West,270,0.0,0.0,15,0.00,,SKC,0.00,VWS V14.01,2013-06-09 05:17:00,
2013-06-08 22:22:00,85.0,32.2,29.89,NNW,338,0.0,0.0,15,0.00,,SKC,0.00,VWS V14.01,2013-06-09 05:22:00,
2013-06-08 22:27:00,87.0,33.8,29.89,NW,315,4.0,4.0,15,0.00,,SKC,0.00,VWS V14.01,2013-06-09 05:27:00,
2013-06-08 22:32:00,87.0,35.4,29.89,NW,315,5.0,5.0,16,0.00,,SKC,0.00,VWS V14.01,2013-06-09 05:32:00,
2013-06-08 22:37:00,87.0,35.4,29.89,WNW,292,4.0,5.0,16,0.00,,SKC,0.00,VWS V14.01,2013-06-09 05:37:00,
2013-06-08 22:42:00,87.0,37.0,29.89,WNW,292,0.0,1.0,17,0.00,,SKC,0.00,VWS V14.01,2013-06-09 05:42:00,
2013-06-08 22:47:00,87.0,37.0,29.89,NW,315,3.0,3.0,17,0.00,,SKC,0.00,VWS V14.01,2013-06-09 05:47:00,
2013-06-08 22:52:00,87.0,38.4,29.90,WNW,292,1.0,1.0,18,0.00,,SKC,0.00,VWS V14.01,2013-06-09 05:52:00,
2013-06-08 22:57:00,87.0,38.4,29.90,WNW,292,0.0,0.0,18,0.00,,SKC,0.00,VWS V14.01,2013-06-09 05:57:00,
2013-06-08 23:02:00,86.0,37.6,29.90,WNW,292,3.0,3.0,18,0.00,,SKC,0.00,VWS V14.01,2013-06-09 06:02:00,
2013-06-08 23:07:00,86.0,37.6,29.90,NW,315,0.0,0.0,18,0.00,,SKC,0.00,VWS V14.01,2013-06-09 06:07:00,
2013-06-08 23:12:00,86.0,37.6,29.90,NNW,338,0.0,0.0,18,0.00,,SKC,0.00,VWS V14.01,2013-06-09 06:12:00,
2013-06-08 23:17:00,85.0,36.8,29.90,NNW,338,0.0,0.0,18,0.00,,SKC,0.00,VWS V14.01,2013-06-09 06:17:00,
2013-06-08 23:22:00,85.0,36.8,29.90,NNW,338,0.0,0.0,18,0.00,,SKC,0.00,VWS V14.01,2013-06-09 06:22:00,
2013-06-08 23:27:00,84.0,37.3,29.90,NNW,338,0.0,0.0,19,0.00,,SKC,0.00,VWS V14.01,2013-06-09 06:27:00,
2013-06-08 23:32:00,84.0,37.3,29.90,West,270,0.0,0.0,19,0.00,,SKC,0.00,VWS V14.01,2013-06-09 06:32:00,
2013-06-08 23:37:00,84.0,37.3,29.90,NNW,338,0.0,0.0,19,0.00,,SKC,0.00,VWS V14.01,2013-06-09 06:37:00,
2013-06-08 23:42:00,83.0,36.5,29.90,WNW,292,0.0,0.0,19,0.00,,SKC,0.00,VWS V14.01,2013-06-09 06:42:00,
2013-06-08 23:47:00,84.0,38.7,29.90,WNW,292,0.0,0.0,20,0.00,,SKC,0.00,VWS V14.01,2013-06-09 06:47:00,
2013-06-08 23:52:00,83.0,37.8,29.90,WSW,248,0.0,0.0,20,0.00,,SKC,0.00,VWS V14.01,2013-06-09 06:52:00,
2013-06-08 23:57:00,83.0,37.8,29.90,SSW,202,0.0,0.0,20,0.00,,SKC,0.00,VWS V14.01,2013-06-09 06:57:00,